Pagrindinis puslapis
METAR-TAF:

METAR-TAF

Oro uostai :

Dawson City, Jukonas, Kanada

platuma: 64-03N, ilguma: 139-08W, Aukštis: 370 m

Dabartinis oras

Ataskaita buvo paskelbta 7 valandos ir 22 minutes, ne 03:00 UTC
Vėjas 4 kt iš Rytų, svyruoja nuo Šiaurės Vakarų ir Rytų/Pietryčių
Temperatūra 19°C
Drėgmė 19%
Slėgis 1009 hPa
Matomumas: 32.2 km
Išsisklaidę debesys ne aukštis 10000 ft

METAR: CYDA 050300Z 09004KT 320V110 20SM SCT100 19/M05 A2979 RMK CU4 LAST STFD OBS/NXT 051300Z SLP099 DENSITY ALT 2100FT

Laikas: 03:22 (10:22 UTC)

Prognozė

Ataskaita buvo paskelbta 13 valandos ir 44 minutes, ne 20:38 UTC
Prognozė galioja nuo 04 metu 21 UTC su 05 metu 03 UTC
Vėjas 5 kt iš Rytų
Matomumas: 10 km
Išsisklaidę debesys ne aukštis 6000 ft
Laikinai
nuo 04 metu 21 UTC su 04 metu 24 UTC
Matomumas: 10 km
Su prošvaistėmis ne aukštis 6000 ft
lietus

TAF: CYDA 042038Z 0421/0503 09005KT P6SM SCT060 TEMPO 0421/0424 P6SM -SHRA BKN060 RMK NXT FCST WILL BE ISSUED AT 051445Z

Orai ataskaitas ir orų prognozės (METAR, TAF).

turimą stotys yra geltonos ir raudonos taškus žemėlapyje.

Perkelti pele per norėdami pamatyti stoties vardą.

Tada spustelėkite, norėdami matyti oro stebėjimo ir prognozės.

Norėdami pakeisti žemėlapį: spustelėkite ant žalios mygtukų su juodo kryžiaus žemyn,; žalią mygtuką su brūkšneliu, jei norite nutolinti; arba žalių rodyklių gretimoms žemėlapius.


METAR-TAF: